sensor_id;sensor_type;location;lat;lon;timestamp;P1;durP1;ratioP1;P2;durP2;ratioP2
77991;SDS011;67180;43.534;-5.652;2023-02-01T00:00:45;8.73;;;5.40;;
77991;SDS011;67180;43.534;-5.652;2023-02-01T00:03:11;9.10;;;5.32;;
77991;SDS011;67180;43.534;-5.652;2023-02-01T00:05:39;9.82;;;5.35;;
77991;SDS011;67180;43.534;-5.652;2023-02-01T00:08:05;7.15;;;4.90;;
77991;SDS011;67180;43.534;-5.652;2023-02-01T00:10:31;10.15;;;5.30;;
77991;SDS011;67180;43.534;-5.652;2023-02-01T00:12:58;9.90;;;5.30;;
77991;SDS011;67180;43.534;-5.652;2023-02-01T00:15:24;11.77;;;5.10;;
77991;SDS011;67180;43.534;-5.652;2023-02-01T00:17:54;7.97;;;5.05;;
77991;SDS011;67180;43.534;-5.652;2023-02-01T00:20:20;12.07;;;5.55;;
77991;SDS011;67180;43.534;-5.652;2023-02-01T00:22:46;10.15;;;4.72;;
77991;SDS011;67180;43.534;-5.652;2023-02-01T00:25:12;10.15;;;4.45;;
77991;SDS011;67180;43.534;-5.652;2023-02-01T00:27:38;11.80;;;5.07;;
77991;SDS011;67180;43.534;-5.652;2023-02-01T00:30:05;8.25;;;4.95;;
77991;SDS011;67180;43.534;-5.652;2023-02-01T00:32:31;7.35;;;4.68;;
77991;SDS011;67180;43.534;-5.652;2023-02-01T00:34:57;10.18;;;5.20;;
77991;SDS011;67180;43.534;-5.652;2023-02-01T00:37:23;9.20;;;5.38;;
77991;SDS011;67180;43.534;-5.652;2023-02-01T00:39:49;9.80;;;5.35;;
77991;SDS011;67180;43.534;-5.652;2023-02-01T00:42:16;11.18;;;5.90;;
77991;SDS011;67180;43.534;-5.652;2023-02-01T00:44:42;8.82;;;5.35;;
77991;SDS011;67180;43.534;-5.652;2023-02-01T00:47:08;8.65;;;5.00;;
77991;SDS011;67180;43.534;-5.652;2023-02-01T00:49:34;10.77;;;5.53;;
77991;SDS011;67180;43.534;-5.652;2023-02-01T00:52:00;10.75;;;5.60;;
77991;SDS011;67180;43.534;-5.652;2023-02-01T00:54:26;9.77;;;5.40;;
77991;SDS011;67180;43.534;-5.652;2023-02-01T00:56:53;10.48;;;5.10;;
77991;SDS011;67180;43.534;-5.652;2023-02-01T00:59:19;11.40;;;5.57;;
77991;SDS011;67180;43.534;-5.652;2023-02-01T01:01:45;10.35;;;5.88;;
77991;SDS011;67180;43.534;-5.652;2023-02-01T01:04:11;11.15;;;6.07;;
77991;SDS011;67180;43.534;-5.652;2023-02-01T01:06:37;11.80;;;6.20;;
77991;SDS011;67180;43.534;-5.652;2023-02-01T01:09:05;12.07;;;6.00;;
77991;SDS011;67180;43.534;-5.652;2023-02-01T01:11:32;12.68;;;6.45;;
77991;SDS011;67180;43.534;-5.652;2023-02-01T01:13:59;12.82;;;6.65;;
77991;SDS011;67180;43.534;-5.652;2023-02-01T01:16:26;12.30;;;6.25;;
77991;SDS011;67180;43.534;-5.652;2023-02-01T01:18:53;12.52;;;6.55;;
77991;SDS011;67180;43.534;-5.652;2023-02-01T01:21:19;11.98;;;5.78;;
77991;SDS011;67180;43.534;-5.652;2023-02-01T01:23:46;13.77;;;6.32;;
77991;SDS011;67180;43.534;-5.652;2023-02-01T01:26:15;10.20;;;5.97;;
77991;SDS011;67180;43.534;-5.652;2023-02-01T01:28:42;12.27;;;6.43;;
77991;SDS011;67180;43.534;-5.652;2023-02-01T01:31:09;11.25;;;6.55;;
77991;SDS011;67180;43.534;-5.652;2023-02-01T01:33:35;11.00;;;5.90;;
77991;SDS011;67180;43.534;-5.652;2023-02-01T01:36:01;10.07;;;5.57;;
77991;SDS011;67180;43.534;-5.652;2023-02-01T01:38:27;11.95;;;5.38;;
77991;SDS011;67180;43.534;-5.652;2023-02-01T01:40:53;11.32;;;5.90;;
77991;SDS011;67180;43.534;-5.652;2023-02-01T01:43:20;9.85;;;5.68;;
77991;SDS011;67180;43.534;-5.652;2023-02-01T01:45:48;15.80;;;5.38;;
77991;SDS011;67180;43.534;-5.652;2023-02-01T01:48:32;11.32;;;5.57;;
77991;SDS011;67180;43.534;-5.652;2023-02-01T01:51:03;10.07;;;5.75;;
77991;SDS011;67180;43.534;-5.652;2023-02-01T01:53:32;10.50;;;5.07;;
77991;SDS011;67180;43.534;-5.652;2023-02-01T01:55:59;9.02;;;5.13;;
77991;SDS011;67180;43.534;-5.652;2023-02-01T01:58:26;10.43;;;5.60;;
77991;SDS011;67180;43.534;-5.652;2023-02-01T02:00:53;9.90;;;5.30;;
77991;SDS011;67180;43.534;-5.652;2023-02-01T02:03:22;10.20;;;5.45;;
77991;SDS011;67180;43.534;-5.652;2023-02-01T02:05:50;8.70;;;5.10;;
77991;SDS011;67180;43.534;-5.652;2023-02-01T02:08:18;9.88;;;5.22;;
77991;SDS011;67180;43.534;-5.652;2023-02-01T02:10:47;9.23;;;5.28;;
77991;SDS011;67180;43.534;-5.652;2023-02-01T02:13:39;9.27;;;5.10;;
77991;SDS011;67180;43.534;-5.652;2023-02-01T02:16:19;9.68;;;5.80;;
77991;SDS011;67180;43.534;-5.652;2023-02-01T02:18:57;10.65;;;5.10;;
77991;SDS011;67180;43.534;-5.652;2023-02-01T02:21:32;10.32;;;5.15;;
77991;SDS011;67180;43.534;-5.652;2023-02-01T02:24:08;9.07;;;4.95;;
77991;SDS011;67180;43.534;-5.652;2023-02-01T02:32:04;6.88;;;4.20;;
77991;SDS011;67180;43.534;-5.652;2023-02-01T02:34:38;8.90;;;4.28;;
77991;SDS011;67180;43.534;-5.652;2023-02-01T02:42:34;9.55;;;5.03;;
77991;SDS011;67180;43.534;-5.652;2023-02-01T02:45:21;11.18;;;4.55;;
77991;SDS011;67180;43.534;-5.652;2023-02-01T02:48:09;8.35;;;4.70;;
77991;SDS011;67180;43.534;-5.652;2023-02-01T02:50:40;11.80;;;4.63;;
77991;SDS011;67180;43.534;-5.652;2023-02-01T02:53:24;7.85;;;4.68;;
77991;SDS011;67180;43.534;-5.652;2023-02-01T02:56:03;8.15;;;4.28;;
77991;SDS011;67180;43.534;-5.652;2023-02-01T02:58:43;10.25;;;4.68;;
77991;SDS011;67180;43.534;-5.652;2023-02-01T03:01:23;8.57;;;4.68;;
77991;SDS011;67180;43.534;-5.652;2023-02-01T03:04:02;9.23;;;4.95;;
77991;SDS011;67180;43.534;-5.652;2023-02-01T03:06:33;7.65;;;4.68;;
77991;SDS011;67180;43.534;-5.652;2023-02-01T03:09:00;8.05;;;4.40;;
77991;SDS011;67180;43.534;-5.652;2023-02-01T03:11:27;8.82;;;4.53;;
77991;SDS011;67180;43.534;-5.652;2023-02-01T03:14:14;8.18;;;4.35;;
77991;SDS011;67180;43.534;-5.652;2023-02-01T03:16:45;10.15;;;4.75;;
77991;SDS011;67180;43.534;-5.652;2023-02-01T03:19:29;9.18;;;4.45;;
77991;SDS011;67180;43.534;-5.652;2023-02-01T03:22:00;11.75;;;4.75;;
77991;SDS011;67180;43.534;-5.652;2023-02-01T03:29:56;8.38;;;4.40;;
77991;SDS011;67180;43.534;-5.652;2023-02-01T03:32:25;8.45;;;4.50;;
77991;SDS011;67180;43.534;-5.652;2023-02-01T03:34:51;8.15;;;4.63;;
77991;SDS011;67180;43.534;-5.652;2023-02-01T03:37:22;7.80;;;4.00;;
77991;SDS011;67180;43.534;-5.652;2023-02-01T03:39:53;7.35;;;4.03;;
77991;SDS011;67180;43.534;-5.652;2023-02-01T03:42:24;6.38;;;3.78;;
77991;SDS011;67180;43.534;-5.652;2023-02-01T03:44:56;5.80;;;3.97;;
77991;SDS011;67180;43.534;-5.652;2023-02-01T03:47:25;7.03;;;3.95;;
77991;SDS011;67180;43.534;-5.652;2023-02-01T03:49:54;8.23;;;4.03;;
77991;SDS011;67180;43.534;-5.652;2023-02-01T03:52:24;7.90;;;3.67;;
77991;SDS011;67180;43.534;-5.652;2023-02-01T03:54:51;7.78;;;3.38;;
77991;SDS011;67180;43.534;-5.652;2023-02-01T03:57:19;6.65;;;4.03;;
77991;SDS011;67180;43.534;-5.652;2023-02-01T03:59:47;7.03;;;3.90;;
77991;SDS011;67180;43.534;-5.652;2023-02-01T04:02:14;7.07;;;3.65;;
77991;SDS011;67180;43.534;-5.652;2023-02-01T04:04:40;7.55;;;3.72;;
77991;SDS011;67180;43.534;-5.652;2023-02-01T04:07:06;7.28;;;4.28;;
77991;SDS011;67180;43.534;-5.652;2023-02-01T04:09:32;6.72;;;3.88;;
77991;SDS011;67180;43.534;-5.652;2023-02-01T04:11:58;7.97;;;3.97;;
77991;SDS011;67180;43.534;-5.652;2023-02-01T04:14:24;8.23;;;3.80;;
77991;SDS011;67180;43.534;-5.652;2023-02-01T04:16:51;5.85;;;3.65;;
77991;SDS011;67180;43.534;-5.652;2023-02-01T04:19:17;9.70;;;4.18;;
77991;SDS011;67180;43.534;-5.652;2023-02-01T04:21:43;5.13;;;3.38;;
77991;SDS011;67180;43.534;-5.652;2023-02-01T04:24:09;8.10;;;3.85;;
77991;SDS011;67180;43.534;-5.652;2023-02-01T04:26:35;7.82;;;4.10;;
77991;SDS011;67180;43.534;-5.652;2023-02-01T04:29:01;7.13;;;3.67;;
77991;SDS011;67180;43.534;-5.652;2023-02-01T04:31:28;7.10;;;3.60;;
77991;SDS011;67180;43.534;-5.652;2023-02-01T04:33:55;8.63;;;4.40;;
77991;SDS011;67180;43.534;-5.652;2023-02-01T04:36:22;6.75;;;3.78;;
77991;SDS011;67180;43.534;-5.652;2023-02-01T04:38:49;7.40;;;3.75;;
77991;SDS011;67180;43.534;-5.652;2023-02-01T04:41:15;10.70;;;4.13;;
77991;SDS011;67180;43.534;-5.652;2023-02-01T04:43:45;7.22;;;3.75;;
77991;SDS011;67180;43.534;-5.652;2023-02-01T04:46:12;6.25;;;3.38;;
77991;SDS011;67180;43.534;-5.652;2023-02-01T04:48:38;6.43;;;3.63;;
77991;SDS011;67180;43.534;-5.652;2023-02-01T04:51:04;8.68;;;3.58;;
77991;SDS011;67180;43.534;-5.652;2023-02-01T04:53:31;6.22;;;3.55;;
77991;SDS011;67180;43.534;-5.652;2023-02-01T04:55:57;7.13;;;4.25;;
77991;SDS011;67180;43.534;-5.652;2023-02-01T04:58:23;6.15;;;4.03;;
77991;SDS011;67180;43.534;-5.652;2023-02-01T05:00:49;6.43;;;3.42;;
77991;SDS011;67180;43.534;-5.652;2023-02-01T05:03:16;6.82;;;3.67;;
77991;SDS011;67180;43.534;-5.652;2023-02-01T05:05:42;6.07;;;3.30;;
77991;SDS011;67180;43.534;-5.652;2023-02-01T05:08:09;7.90;;;3.40;;
77991;SDS011;67180;43.534;-5.652;2023-02-01T05:10:35;7.78;;;3.60;;
77991;SDS011;67180;43.534;-5.652;2023-02-01T05:13:01;6.43;;;3.45;;
77991;SDS011;67180;43.534;-5.652;2023-02-01T05:15:43;7.88;;;3.47;;
77991;SDS011;67180;43.534;-5.652;2023-02-01T05:18:11;7.05;;;3.63;;
77991;SDS011;67180;43.534;-5.652;2023-02-01T05:20:37;5.88;;;3.47;;
77991;SDS011;67180;43.534;-5.652;2023-02-01T05:23:03;6.45;;;3.72;;
77991;SDS011;67180;43.534;-5.652;2023-02-01T05:25:30;5.90;;;3.35;;
77991;SDS011;67180;43.534;-5.652;2023-02-01T05:27:56;6.82;;;3.70;;
77991;SDS011;67180;43.534;-5.652;2023-02-01T05:30:23;7.97;;;3.67;;
77991;SDS011;67180;43.534;-5.652;2023-02-01T05:32:50;7.65;;;3.50;;
77991;SDS011;67180;43.534;-5.652;2023-02-01T05:35:16;6.82;;;3.53;;
77991;SDS011;67180;43.534;-5.652;2023-02-01T05:37:42;9.25;;;4.03;;
77991;SDS011;67180;43.534;-5.652;2023-02-01T05:40:08;7.78;;;3.50;;
77991;SDS011;67180;43.534;-5.652;2023-02-01T05:42:35;6.13;;;3.30;;
77991;SDS011;67180;43.534;-5.652;2023-02-01T05:45:01;7.07;;;3.97;;
77991;SDS011;67180;43.534;-5.652;2023-02-01T05:47:27;5.65;;;3.28;;
77991;SDS011;67180;43.534;-5.652;2023-02-01T05:49:53;6.85;;;3.28;;
77991;SDS011;67180;43.534;-5.652;2023-02-01T05:52:20;6.22;;;3.55;;
77991;SDS011;67180;43.534;-5.652;2023-02-01T05:54:46;8.55;;;3.70;;
77991;SDS011;67180;43.534;-5.652;2023-02-01T05:57:12;7.18;;;4.00;;
77991;SDS011;67180;43.534;-5.652;2023-02-01T05:59:39;6.72;;;3.90;;
77991;SDS011;67180;43.534;-5.652;2023-02-01T06:02:07;6.93;;;3.78;;
77991;SDS011;67180;43.534;-5.652;2023-02-01T06:04:35;5.88;;;3.53;;
77991;SDS011;67180;43.534;-5.652;2023-02-01T06:07:01;5.93;;;3.55;;
77991;SDS011;67180;43.534;-5.652;2023-02-01T06:09:27;5.93;;;3.17;;
77991;SDS011;67180;43.534;-5.652;2023-02-01T06:11:53;4.82;;;3.25;;
77991;SDS011;67180;43.534;-5.652;2023-02-01T06:14:20;8.73;;;3.22;;
77991;SDS011;67180;43.534;-5.652;2023-02-01T06:16:46;5.57;;;3.20;;
77991;SDS011;67180;43.534;-5.652;2023-02-01T06:19:13;7.93;;;3.60;;
77991;SDS011;67180;43.534;-5.652;2023-02-01T06:21:39;5.05;;;2.88;;
77991;SDS011;67180;43.534;-5.652;2023-02-01T06:24:05;5.88;;;3.53;;
77991;SDS011;67180;43.534;-5.652;2023-02-01T06:26:32;6.18;;;3.17;;
77991;SDS011;67180;43.534;-5.652;2023-02-01T06:28:58;7.43;;;3.08;;
77991;SDS011;67180;43.534;-5.652;2023-02-01T06:31:25;5.90;;;2.83;;
77991;SDS011;67180;43.534;-5.652;2023-02-01T06:33:51;8.27;;;3.40;;
77991;SDS011;67180;43.534;-5.652;2023-02-01T06:36:18;6.82;;;2.90;;
77991;SDS011;67180;43.534;-5.652;2023-02-01T06:38:46;5.57;;;3.13;;
77991;SDS011;67180;43.534;-5.652;2023-02-01T06:41:13;4.53;;;2.67;;
77991;SDS011;67180;43.534;-5.652;2023-02-01T06:43:40;6.90;;;3.10;;
77991;SDS011;67180;43.534;-5.652;2023-02-01T06:46:07;3.92;;;2.65;;
77991;SDS011;67180;43.534;-5.652;2023-02-01T06:48:34;5.18;;;2.55;;
77991;SDS011;67180;43.534;-5.652;2023-02-01T06:51:00;4.95;;;2.50;;
77991;SDS011;67180;43.534;-5.652;2023-02-01T06:53:26;6.75;;;2.58;;
77991;SDS011;67180;43.534;-5.652;2023-02-01T06:55:53;6.43;;;2.75;;
77991;SDS011;67180;43.534;-5.652;2023-02-01T06:58:20;5.40;;;2.60;;
77991;SDS011;67180;43.534;-5.652;2023-02-01T07:00:46;4.07;;;2.53;;
77991;SDS011;67180;43.534;-5.652;2023-02-01T07:03:12;4.88;;;2.63;;
77991;SDS011;67180;43.534;-5.652;2023-02-01T07:05:38;5.72;;;2.80;;
77991;SDS011;67180;43.534;-5.652;2023-02-01T07:08:04;5.53;;;2.60;;
77991;SDS011;67180;43.534;-5.652;2023-02-01T07:10:30;3.83;;;2.22;;
77991;SDS011;67180;43.534;-5.652;2023-02-01T07:12:57;4.82;;;2.55;;
77991;SDS011;67180;43.534;-5.652;2023-02-01T07:15:23;4.20;;;2.45;;
77991;SDS011;67180;43.534;-5.652;2023-02-01T07:17:49;4.97;;;2.63;;
77991;SDS011;67180;43.534;-5.652;2023-02-01T07:20:16;4.15;;;2.22;;
77991;SDS011;67180;43.534;-5.652;2023-02-01T07:22:44;4.80;;;2.13;;
77991;SDS011;67180;43.534;-5.652;2023-02-01T07:25:10;4.90;;;2.58;;
77991;SDS011;67180;43.534;-5.652;2023-02-01T07:27:37;4.05;;;2.08;;
77991;SDS011;67180;43.534;-5.652;2023-02-01T07:30:05;3.53;;;2.28;;
77991;SDS011;67180;43.534;-5.652;2023-02-01T07:32:32;7.75;;;2.53;;
77991;SDS011;67180;43.534;-5.652;2023-02-01T07:34:58;5.18;;;2.50;;
77991;SDS011;67180;43.534;-5.652;2023-02-01T07:37:24;5.35;;;2.58;;
77991;SDS011;67180;43.534;-5.652;2023-02-01T07:39:51;3.60;;;2.30;;
77991;SDS011;67180;43.534;-5.652;2023-02-01T07:42:17;6.57;;;2.58;;
77991;SDS011;67180;43.534;-5.652;2023-02-01T07:44:43;6.80;;;2.40;;
77991;SDS011;67180;43.534;-5.652;2023-02-01T07:47:09;7.05;;;2.55;;
77991;SDS011;67180;43.534;-5.652;2023-02-01T07:49:36;5.18;;;2.17;;
77991;SDS011;67180;43.534;-5.652;2023-02-01T07:52:02;5.95;;;2.20;;
77991;SDS011;67180;43.534;-5.652;2023-02-01T07:54:28;4.45;;;2.63;;
77991;SDS011;67180;43.534;-5.652;2023-02-01T07:56:54;5.10;;;2.75;;
77991;SDS011;67180;43.534;-5.652;2023-02-01T07:59:21;3.92;;;2.30;;
77991;SDS011;67180;43.534;-5.652;2023-02-01T08:01:47;7.18;;;2.70;;
77991;SDS011;67180;43.534;-5.652;2023-02-01T08:04:13;5.63;;;2.30;;
77991;SDS011;67180;43.534;-5.652;2023-02-01T08:06:39;5.47;;;2.47;;
77991;SDS011;67180;43.534;-5.652;2023-02-01T08:09:06;6.97;;;3.20;;
77991;SDS011;67180;43.534;-5.652;2023-02-01T08:11:33;3.85;;;2.13;;
77991;SDS011;67180;43.534;-5.652;2023-02-01T08:14:01;8.43;;;2.75;;
77991;SDS011;67180;43.534;-5.652;2023-02-01T08:16:27;5.53;;;2.60;;
77991;SDS011;67180;43.534;-5.652;2023-02-01T08:18:54;6.47;;;2.53;;
77991;SDS011;67180;43.534;-5.652;2023-02-01T08:21:21;6.47;;;3.00;;
77991;SDS011;67180;43.534;-5.652;2023-02-01T08:23:48;6.55;;;2.60;;
77991;SDS011;67180;43.534;-5.652;2023-02-01T08:26:22;8.50;;;2.88;;
77991;SDS011;67180;43.534;-5.652;2023-02-01T08:28:51;5.63;;;2.55;;
77991;SDS011;67180;43.534;-5.652;2023-02-01T08:31:18;8.68;;;2.95;;
77991;SDS011;67180;43.534;-5.652;2023-02-01T08:33:48;9.57;;;2.95;;
77991;SDS011;67180;43.534;-5.652;2023-02-01T08:36:15;6.57;;;3.13;;
77991;SDS011;67180;43.534;-5.652;2023-02-01T08:38:42;4.80;;;3.05;;
77991;SDS011;67180;43.534;-5.652;2023-02-01T08:41:10;5.40;;;3.13;;
77991;SDS011;67180;43.534;-5.652;2023-02-01T08:43:37;6.80;;;3.28;;
77991;SDS011;67180;43.534;-5.652;2023-02-01T08:46:03;9.80;;;3.45;;
77991;SDS011;67180;43.534;-5.652;2023-02-01T08:48:32;7.85;;;3.50;;
77991;SDS011;67180;43.534;-5.652;2023-02-01T08:51:03;7.18;;;3.10;;
77991;SDS011;67180;43.534;-5.652;2023-02-01T08:53:30;6.78;;;3.55;;
77991;SDS011;67180;43.534;-5.652;2023-02-01T08:55:56;6.90;;;3.30;;
77991;SDS011;67180;43.534;-5.652;2023-02-01T08:58:22;9.13;;;3.55;;
77991;SDS011;67180;43.534;-5.652;2023-02-01T09:00:48;12.38;;;3.92;;
77991;SDS011;67180;43.534;-5.652;2023-02-01T09:03:16;8.65;;;3.78;;
77991;SDS011;67180;43.534;-5.652;2023-02-01T09:05:42;9.30;;;4.07;;
77991;SDS011;67180;43.534;-5.652;2023-02-01T09:08:10;7.75;;;3.90;;
77991;SDS011;67180;43.534;-5.652;2023-02-01T09:10:39;9.38;;;3.97;;
77991;SDS011;67180;43.534;-5.652;2023-02-01T09:13:06;6.15;;;3.58;;
77991;SDS011;67180;43.534;-5.652;2023-02-01T09:15:33;7.25;;;3.78;;
77991;SDS011;67180;43.534;-5.652;2023-02-01T09:17:59;6.70;;;3.90;;
77991;SDS011;67180;43.534;-5.652;2023-02-01T09:20:25;11.18;;;4.25;;
77991;SDS011;67180;43.534;-5.652;2023-02-01T09:22:52;7.55;;;4.15;;
77991;SDS011;67180;43.534;-5.652;2023-02-01T09:25:18;8.77;;;4.03;;
77991;SDS011;67180;43.534;-5.652;2023-02-01T09:27:44;8.77;;;3.83;;
77991;SDS011;67180;43.534;-5.652;2023-02-01T09:30:10;7.28;;;4.10;;
77991;SDS011;67180;43.534;-5.652;2023-02-01T09:32:37;5.40;;;3.10;;
77991;SDS011;67180;43.534;-5.652;2023-02-01T09:35:03;9.70;;;3.70;;
77991;SDS011;67180;43.534;-5.652;2023-02-01T09:37:29;7.22;;;3.55;;
77991;SDS011;67180;43.534;-5.652;2023-02-01T09:39:56;8.95;;;3.30;;
77991;SDS011;67180;43.534;-5.652;2023-02-01T09:42:37;9.13;;;3.97;;
77991;SDS011;67180;43.534;-5.652;2023-02-01T09:45:10;6.97;;;3.78;;
77991;SDS011;67180;43.534;-5.652;2023-02-01T09:47:41;8.77;;;4.07;;
77991;SDS011;67180;43.534;-5.652;2023-02-01T09:50:11;10.05;;;3.92;;
77991;SDS011;67180;43.534;-5.652;2023-02-01T09:52:44;10.88;;;3.97;;
77991;SDS011;67180;43.534;-5.652;2023-02-01T09:55:13;8.07;;;3.90;;
77991;SDS011;67180;43.534;-5.652;2023-02-01T09:57:45;7.03;;;3.63;;
77991;SDS011;67180;43.534;-5.652;2023-02-01T10:00:17;8.05;;;3.50;;
77991;SDS011;67180;43.534;-5.652;2023-02-01T10:02:45;7.72;;;3.83;;
77991;SDS011;67180;43.534;-5.652;2023-02-01T10:05:12;9.90;;;3.85;;
77991;SDS011;67180;43.534;-5.652;2023-02-01T10:07:43;5.75;;;3.85;;
77991;SDS011;67180;43.534;-5.652;2023-02-01T10:15:22;6.25;;;3.38;;
77991;SDS011;67180;43.534;-5.652;2023-02-01T10:17:54;7.70;;;3.47;;
77991;SDS011;67180;43.534;-5.652;2023-02-01T10:20:36;5.55;;;3.30;;
77991;SDS011;67180;43.534;-5.652;2023-02-01T10:25:55;8.38;;;3.42;;
77991;SDS011;67180;43.534;-5.652;2023-02-01T10:28:22;7.68;;;3.40;;
77991;SDS011;67180;43.534;-5.652;2023-02-01T10:30:50;6.43;;;3.10;;
77991;SDS011;67180;43.534;-5.652;2023-02-01T10:33:22;5.18;;;3.45;;
77991;SDS011;67180;43.534;-5.652;2023-02-01T10:35:52;9.18;;;3.28;;
77991;SDS011;67180;43.534;-5.652;2023-02-01T10:38:24;8.93;;;3.50;;
77991;SDS011;67180;43.534;-5.652;2023-02-01T10:40:52;6.40;;;3.85;;
77991;SDS011;67180;43.534;-5.652;2023-02-01T10:43:19;4.88;;;3.28;;
77991;SDS011;67180;43.534;-5.652;2023-02-01T10:45:45;5.63;;;3.20;;
77991;SDS011;67180;43.534;-5.652;2023-02-01T10:48:11;6.70;;;3.35;;
77991;SDS011;67180;43.534;-5.652;2023-02-01T10:50:44;7.40;;;3.40;;
77991;SDS011;67180;43.534;-5.652;2023-02-01T10:53:15;6.57;;;3.53;;
77991;SDS011;67180;43.534;-5.652;2023-02-01T10:55:49;8.48;;;4.10;;
77991;SDS011;67180;43.534;-5.652;2023-02-01T10:58:17;14.30;;;4.38;;
77991;SDS011;67180;43.534;-5.652;2023-02-01T11:00:45;13.40;;;5.43;;
77991;SDS011;67180;43.534;-5.652;2023-02-01T11:05:53;21.38;;;5.90;;
77991;SDS011;67180;43.534;-5.652;2023-02-01T11:08:21;22.08;;;5.20;;
77991;SDS011;67180;43.534;-5.652;2023-02-01T11:10:49;24.27;;;5.05;;
77991;SDS011;67180;43.534;-5.652;2023-02-01T11:13:22;16.90;;;4.93;;
77991;SDS011;67180;43.534;-5.652;2023-02-01T11:15:55;14.65;;;4.00;;
77991;SDS011;67180;43.534;-5.652;2023-02-01T11:18:31;15.90;;;4.75;;
77991;SDS011;67180;43.534;-5.652;2023-02-01T11:20:57;11.35;;;4.68;;
77991;SDS011;67180;43.534;-5.652;2023-02-01T11:23:25;10.55;;;4.50;;
77991;SDS011;67180;43.534;-5.652;2023-02-01T11:25:54;11.48;;;5.60;;
77991;SDS011;67180;43.534;-5.652;2023-02-01T11:28:22;12.63;;;5.90;;
77991;SDS011;67180;43.534;-5.652;2023-02-01T11:30:49;14.20;;;5.55;;
77991;SDS011;67180;43.534;-5.652;2023-02-01T11:33:18;9.00;;;5.70;;
77991;SDS011;67180;43.534;-5.652;2023-02-01T11:35:44;16.70;;;7.95;;
77991;SDS011;67180;43.534;-5.652;2023-02-01T11:38:20;11.73;;;7.32;;
77991;SDS011;67180;43.534;-5.652;2023-02-01T11:40:47;11.35;;;6.72;;
77991;SDS011;67180;43.534;-5.652;2023-02-01T11:43:16;9.63;;;5.55;;
77991;SDS011;67180;43.534;-5.652;2023-02-01T11:45:53;9.40;;;4.60;;
77991;SDS011;67180;43.534;-5.652;2023-02-01T11:48:19;8.65;;;4.13;;
77991;SDS011;67180;43.534;-5.652;2023-02-01T11:59:00;12.00;;;2.72;;
77991;SDS011;67180;43.534;-5.652;2023-02-01T12:01:37;6.80;;;2.70;;
77991;SDS011;67180;43.534;-5.652;2023-02-01T12:04:13;10.43;;;2.83;;
77991;SDS011;67180;43.534;-5.652;2023-02-01T12:06:52;7.68;;;2.83;;
77991;SDS011;67180;43.534;-5.652;2023-02-01T12:09:24;8.75;;;2.38;;
77991;SDS011;67180;43.534;-5.652;2023-02-01T12:12:06;6.40;;;2.03;;
77991;SDS011;67180;43.534;-5.652;2023-02-01T12:17:18;9.10;;;2.30;;
77991;SDS011;67180;43.534;-5.652;2023-02-01T12:20:01;8.18;;;2.45;;
77991;SDS011;67180;43.534;-5.652;2023-02-01T12:22:35;5.53;;;1.83;;
77991;SDS011;67180;43.534;-5.652;2023-02-01T12:25:09;9.95;;;1.70;;
77991;SDS011;67180;43.534;-5.652;2023-02-01T12:33:27;2.95;;;1.27;;
77991;SDS011;67180;43.534;-5.652;2023-02-01T12:36:00;2.75;;;1.10;;
77991;SDS011;67180;43.534;-5.652;2023-02-01T12:38:46;2.25;;;1.50;;
77991;SDS011;67180;43.534;-5.652;2023-02-01T12:43:54;1.75;;;1.33;;
77991;SDS011;67180;43.534;-5.652;2023-02-01T12:46:23;2.90;;;1.50;;
77991;SDS011;67180;43.534;-5.652;2023-02-01T12:51:18;2.15;;;1.52;;
77991;SDS011;67180;43.534;-5.652;2023-02-01T12:56:28;2.22;;;1.80;;
77991;SDS011;67180;43.534;-5.652;2023-02-01T12:58:55;3.67;;;1.98;;
77991;SDS011;67180;43.534;-5.652;2023-02-01T13:01:27;2.05;;;1.00;;
77991;SDS011;67180;43.534;-5.652;2023-02-01T13:04:01;1.75;;;1.00;;
77991;SDS011;67180;43.534;-5.652;2023-02-01T13:06:36;3.75;;;1.90;;
77991;SDS011;67180;43.534;-5.652;2023-02-01T13:09:05;4.68;;;2.20;;
77991;SDS011;67180;43.534;-5.652;2023-02-01T13:11:37;3.28;;;2.97;;
77991;SDS011;67180;43.534;-5.652;2023-02-01T13:14:07;5.07;;;2.80;;
77991;SDS011;67180;43.534;-5.652;2023-02-01T13:19:03;4.05;;;3.65;;
77991;SDS011;67180;43.534;-5.652;2023-02-01T13:21:33;4.00;;;3.70;;
77991;SDS011;67180;43.534;-5.652;2023-02-01T13:24:00;3.85;;;3.50;;
77991;SDS011;67180;43.534;-5.652;2023-02-01T13:26:26;3.97;;;3.67;;
77991;SDS011;67180;43.534;-5.652;2023-02-01T13:28:57;2.55;;;1.27;;
77991;SDS011;67180;43.534;-5.652;2023-02-01T13:31:32;1.42;;;1.02;;
77991;SDS011;67180;43.534;-5.652;2023-02-01T13:34:22;3.83;;;3.60;;
77991;SDS011;67180;43.534;-5.652;2023-02-01T13:36:49;4.78;;;3.10;;
77991;SDS011;67180;43.534;-5.652;2023-02-01T13:39:39;6.03;;;1.98;;
77991;SDS011;67180;43.534;-5.652;2023-02-01T13:42:23;4.28;;;1.48;;
77991;SDS011;67180;43.534;-5.652;2023-02-01T13:44:52;6.65;;;1.50;;
77991;SDS011;67180;43.534;-5.652;2023-02-01T13:47:24;7.82;;;5.90;;
77991;SDS011;67180;43.534;-5.652;2023-02-01T13:49:51;5.38;;;1.67;;
77991;SDS011;67180;43.534;-5.652;2023-02-01T13:52:24;3.92;;;3.38;;
77991;SDS011;67180;43.534;-5.652;2023-02-01T13:55:00;5.82;;;4.78;;
77991;SDS011;67180;43.534;-5.652;2023-02-01T13:57:35;2.58;;;1.35;;
77991;SDS011;67180;43.534;-5.652;2023-02-01T14:00:06;4.43;;;1.60;;
77991;SDS011;67180;43.534;-5.652;2023-02-01T14:02:46;6.85;;;1.85;;
77991;SDS011;67180;43.534;-5.652;2023-02-01T14:08:12;5.50;;;2.10;;
77991;SDS011;67180;43.534;-5.652;2023-02-01T14:16:11;6.53;;;1.50;;
77991;SDS011;67180;43.534;-5.652;2023-02-01T14:24:23;22.50;;;20.75;;
77991;SDS011;67180;43.534;-5.652;2023-02-01T14:26:50;19.33;;;17.83;;
77991;SDS011;67180;43.534;-5.652;2023-02-01T14:29:22;32.60;;;30.20;;
77991;SDS011;67180;43.534;-5.652;2023-02-01T14:40:03;3.22;;;1.30;;
77991;SDS011;67180;43.534;-5.652;2023-02-01T14:50:48;1999.90;;;999.90;;
77991;SDS011;67180;43.534;-5.652;2023-02-01T14:53:20;1999.90;;;999.90;;
77991;SDS011;67180;43.534;-5.652;2023-02-01T14:55:50;1999.90;;;999.90;;
77991;SDS011;67180;43.534;-5.652;2023-02-01T14:58:20;1999.90;;;999.90;;
77991;SDS011;67180;43.534;-5.652;2023-02-01T15:00:52;1999.90;;;999.90;;
77991;SDS011;67180;43.534;-5.652;2023-02-01T15:06:02;3.53;;;3.03;;
77991;SDS011;67180;43.534;-5.652;2023-02-01T15:08:32;1999.90;;;999.90;;
77991;SDS011;67180;43.534;-5.652;2023-02-01T15:11:00;1999.90;;;999.90;;
77991;SDS011;67180;43.534;-5.652;2023-02-01T15:13:27;1999.90;;;999.90;;
77991;SDS011;67180;43.534;-5.652;2023-02-01T15:18:32;1999.90;;;999.90;;
77991;SDS011;67180;43.534;-5.652;2023-02-01T15:20:59;1999.90;;;999.90;;
77991;SDS011;67180;43.534;-5.652;2023-02-01T15:23:27;1999.90;;;999.90;;
77991;SDS011;67180;43.534;-5.652;2023-02-01T15:25:53;1999.90;;;999.90;;
77991;SDS011;67180;43.534;-5.652;2023-02-01T15:28:20;1999.90;;;999.90;;
77991;SDS011;67180;43.534;-5.652;2023-02-01T15:33:25;1999.90;;;999.90;;
77991;SDS011;67180;43.534;-5.652;2023-02-01T15:35:53;1999.90;;;999.90;;
77991;SDS011;67180;43.534;-5.652;2023-02-01T15:38:32;1999.90;;;999.90;;
77991;SDS011;67180;43.534;-5.652;2023-02-01T15:41:00;1999.90;;;999.90;;
77991;SDS011;67180;43.534;-5.652;2023-02-01T15:43:28;1999.90;;;999.90;;
77991;SDS011;67180;43.534;-5.652;2023-02-01T15:45:57;1999.90;;;999.90;;
77991;SDS011;67180;43.534;-5.652;2023-02-01T15:48:24;1999.90;;;999.90;;
77991;SDS011;67180;43.534;-5.652;2023-02-01T15:50:52;1999.90;;;999.90;;
77991;SDS011;67180;43.534;-5.652;2023-02-01T15:53:21;1999.90;;;999.90;;
77991;SDS011;67180;43.534;-5.652;2023-02-01T15:55:51;24.42;;;22.95;;
77991;SDS011;67180;43.534;-5.652;2023-02-01T15:58:20;1999.90;;;999.90;;
77991;SDS011;67180;43.534;-5.652;2023-02-01T16:00:48;22.20;;;20.85;;
77991;SDS011;67180;43.534;-5.652;2023-02-01T16:05:57;22.77;;;21.38;;
77991;SDS011;67180;43.534;-5.652;2023-02-01T16:08:24;3.90;;;3.45;;
77991;SDS011;67180;43.534;-5.652;2023-02-01T16:10:52;15.82;;;14.70;;
77991;SDS011;67180;43.534;-5.652;2023-02-01T16:13:19;12.85;;;11.65;;